sensor_id;sensor_type;location;lat;lon;timestamp;P1;durP1;ratioP1;P2;durP2;ratioP2
10094;SDS011;5086;50.830;7.102;2023-07-29T00:01:33;2.92;;;2.50;;
10094;SDS011;5086;50.830;7.102;2023-07-29T00:04:00;5.30;;;2.23;;
10094;SDS011;5086;50.830;7.102;2023-07-29T00:06:27;7.03;;;2.20;;
10094;SDS011;5086;50.830;7.102;2023-07-29T00:08:54;1.60;;;1.50;;
10094;SDS011;5086;50.830;7.102;2023-07-29T00:11:22;1.60;;;1.40;;
10094;SDS011;5086;50.830;7.102;2023-07-29T00:13:49;1.87;;;1.60;;
10094;SDS011;5086;50.830;7.102;2023-07-29T00:16:16;3.33;;;1.80;;
10094;SDS011;5086;50.830;7.102;2023-07-29T00:18:43;2.50;;;1.97;;
10094;SDS011;5086;50.830;7.102;2023-07-29T00:21:10;1.90;;;1.50;;
10094;SDS011;5086;50.830;7.102;2023-07-29T00:23:37;1.70;;;1.60;;
10094;SDS011;5086;50.830;7.102;2023-07-29T00:26:04;2.08;;;1.60;;
10094;SDS011;5086;50.830;7.102;2023-07-29T00:28:32;3.13;;;1.60;;
10094;SDS011;5086;50.830;7.102;2023-07-29T00:30:59;1.48;;;1.38;;
10094;SDS011;5086;50.830;7.102;2023-07-29T00:33:26;1.58;;;1.48;;
10094;SDS011;5086;50.830;7.102;2023-07-29T00:35:53;2.00;;;1.80;;
10094;SDS011;5086;50.830;7.102;2023-07-29T00:38:20;1.88;;;1.50;;
10094;SDS011;5086;50.830;7.102;2023-07-29T00:40:47;1.88;;;1.45;;
10094;SDS011;5086;50.830;7.102;2023-07-29T00:43:14;3.70;;;1.95;;
10094;SDS011;5086;50.830;7.102;2023-07-29T00:45:42;8.10;;;1.98;;
10094;SDS011;5086;50.830;7.102;2023-07-29T00:48:10;2.97;;;1.60;;
10094;SDS011;5086;50.830;7.102;2023-07-29T00:50:37;2.30;;;1.75;;
10094;SDS011;5086;50.830;7.102;2023-07-29T00:53:04;1.55;;;1.30;;
10094;SDS011;5086;50.830;7.102;2023-07-29T00:55:31;2.63;;;1.93;;
10094;SDS011;5086;50.830;7.102;2023-07-29T00:57:59;3.80;;;2.42;;
10094;SDS011;5086;50.830;7.102;2023-07-29T01:00:26;2.35;;;2.15;;
10094;SDS011;5086;50.830;7.102;2023-07-29T01:02:55;4.22;;;2.08;;
10094;SDS011;5086;50.830;7.102;2023-07-29T01:05:22;3.40;;;2.05;;
10094;SDS011;5086;50.830;7.102;2023-07-29T01:07:54;3.20;;;2.00;;
10094;SDS011;5086;50.830;7.102;2023-07-29T01:10:29;3.85;;;2.10;;
10094;SDS011;5086;50.830;7.102;2023-07-29T01:13:05;3.80;;;1.97;;
10094;SDS011;5086;50.830;7.102;2023-07-29T01:15:39;3.25;;;2.15;;
10094;SDS011;5086;50.830;7.102;2023-07-29T01:18:15;1.80;;;1.60;;
10094;SDS011;5086;50.830;7.102;2023-07-29T01:20:48;2.90;;;1.80;;
10094;SDS011;5086;50.830;7.102;2023-07-29T01:23:24;2.55;;;1.75;;
10094;SDS011;5086;50.830;7.102;2023-07-29T01:25:51;1.83;;;1.70;;
10094;SDS011;5086;50.830;7.102;2023-07-29T01:28:18;2.43;;;2.00;;
10094;SDS011;5086;50.830;7.102;2023-07-29T01:30:45;2.22;;;1.95;;
10094;SDS011;5086;50.830;7.102;2023-07-29T01:33:20;3.30;;;1.83;;
10094;SDS011;5086;50.830;7.102;2023-07-29T01:35:54;3.60;;;1.80;;
10094;SDS011;5086;50.830;7.102;2023-07-29T01:38:29;1.75;;;1.50;;
10094;SDS011;5086;50.830;7.102;2023-07-29T01:40:59;3.03;;;1.93;;
10094;SDS011;5086;50.830;7.102;2023-07-29T01:43:28;5.03;;;2.07;;
10094;SDS011;5086;50.830;7.102;2023-07-29T01:45:55;2.40;;;1.80;;
10094;SDS011;5086;50.830;7.102;2023-07-29T01:48:22;2.50;;;2.00;;
10094;SDS011;5086;50.830;7.102;2023-07-29T01:50:49;2.25;;;2.00;;
10094;SDS011;5086;50.830;7.102;2023-07-29T01:53:16;4.38;;;1.95;;
10094;SDS011;5086;50.830;7.102;2023-07-29T01:55:45;2.38;;;1.75;;
10094;SDS011;5086;50.830;7.102;2023-07-29T01:58:12;2.17;;;1.80;;
10094;SDS011;5086;50.830;7.102;2023-07-29T02:00:39;1.85;;;1.40;;
10094;SDS011;5086;50.830;7.102;2023-07-29T02:03:06;2.00;;;1.88;;
10094;SDS011;5086;50.830;7.102;2023-07-29T02:05:33;1.98;;;1.88;;
10094;SDS011;5086;50.830;7.102;2023-07-29T02:08:00;1.85;;;1.45;;
10094;SDS011;5086;50.830;7.102;2023-07-29T02:10:27;1.87;;;1.60;;
10094;SDS011;5086;50.830;7.102;2023-07-29T02:12:55;1.88;;;1.67;;
10094;SDS011;5086;50.830;7.102;2023-07-29T02:15:22;3.05;;;1.80;;
10094;SDS011;5086;50.830;7.102;2023-07-29T02:17:49;1.70;;;1.60;;
10094;SDS011;5086;50.830;7.102;2023-07-29T02:20:17;2.47;;;1.70;;
10094;SDS011;5086;50.830;7.102;2023-07-29T02:22:44;1.40;;;1.30;;
10094;SDS011;5086;50.830;7.102;2023-07-29T02:25:11;2.00;;;1.60;;
10094;SDS011;5086;50.830;7.102;2023-07-29T02:27:38;1.85;;;1.75;;
10094;SDS011;5086;50.830;7.102;2023-07-29T02:30:07;2.22;;;1.73;;
10094;SDS011;5086;50.830;7.102;2023-07-29T02:32:35;2.15;;;1.35;;
10094;SDS011;5086;50.830;7.102;2023-07-29T02:35:02;2.47;;;1.60;;
10094;SDS011;5086;50.830;7.102;2023-07-29T02:37:30;1.67;;;1.50;;
10094;SDS011;5086;50.830;7.102;2023-07-29T02:39:57;1.88;;;1.73;;
10094;SDS011;5086;50.830;7.102;2023-07-29T02:42:24;1.92;;;1.73;;
10094;SDS011;5086;50.830;7.102;2023-07-29T02:44:51;3.03;;;2.28;;
10094;SDS011;5086;50.830;7.102;2023-07-29T02:47:19;1.60;;;1.50;;
10094;SDS011;5086;50.830;7.102;2023-07-29T02:49:46;3.17;;;1.88;;
10094;SDS011;5086;50.830;7.102;2023-07-29T02:52:13;1.80;;;1.70;;
10094;SDS011;5086;50.830;7.102;2023-07-29T02:54:40;1.70;;;1.55;;
10094;SDS011;5086;50.830;7.102;2023-07-29T02:57:07;2.83;;;1.75;;
10094;SDS011;5086;50.830;7.102;2023-07-29T02:59:34;1.63;;;1.48;;
10094;SDS011;5086;50.830;7.102;2023-07-29T03:02:01;2.95;;;1.50;;
10094;SDS011;5086;50.830;7.102;2023-07-29T03:04:29;1.50;;;1.40;;
10094;SDS011;5086;50.830;7.102;2023-07-29T03:06:56;1.52;;;1.42;;
10094;SDS011;5086;50.830;7.102;2023-07-29T03:09:24;1.75;;;1.65;;
10094;SDS011;5086;50.830;7.102;2023-07-29T03:11:51;1.70;;;1.60;;
10094;SDS011;5086;50.830;7.102;2023-07-29T03:14:19;2.75;;;1.70;;
10094;SDS011;5086;50.830;7.102;2023-07-29T03:16:47;1.80;;;1.63;;
10094;SDS011;5086;50.830;7.102;2023-07-29T03:19:14;2.08;;;1.80;;
10094;SDS011;5086;50.830;7.102;2023-07-29T03:21:43;1.67;;;1.58;;
10094;SDS011;5086;50.830;7.102;2023-07-29T03:24:10;2.47;;;1.63;;
10094;SDS011;5086;50.830;7.102;2023-07-29T03:26:37;2.20;;;1.70;;
10094;SDS011;5086;50.830;7.102;2023-07-29T03:29:04;5.22;;;1.80;;
10094;SDS011;5086;50.830;7.102;2023-07-29T03:31:31;2.45;;;1.80;;
10094;SDS011;5086;50.830;7.102;2023-07-29T03:33:58;2.15;;;1.75;;
10094;SDS011;5086;50.830;7.102;2023-07-29T03:36:25;2.20;;;2.00;;
10094;SDS011;5086;50.830;7.102;2023-07-29T03:38:53;3.97;;;1.50;;
10094;SDS011;5086;50.830;7.102;2023-07-29T03:41:20;1.92;;;1.40;;
10094;SDS011;5086;50.830;7.102;2023-07-29T03:43:47;2.08;;;1.20;;
10094;SDS011;5086;50.830;7.102;2023-07-29T03:46:14;1.73;;;1.30;;
10094;SDS011;5086;50.830;7.102;2023-07-29T03:48:44;2.17;;;0.98;;
10094;SDS011;5086;50.830;7.102;2023-07-29T03:51:11;1.15;;;1.05;;
10094;SDS011;5086;50.830;7.102;2023-07-29T03:53:38;1.15;;;0.98;;
10094;SDS011;5086;50.830;7.102;2023-07-29T03:56:06;5.95;;;0.95;;
10094;SDS011;5086;50.830;7.102;2023-07-29T03:58:33;1.10;;;1.00;;
10094;SDS011;5086;50.830;7.102;2023-07-29T04:01:00;1.40;;;1.10;;
10094;SDS011;5086;50.830;7.102;2023-07-29T04:03:27;1.25;;;1.15;;
10094;SDS011;5086;50.830;7.102;2023-07-29T04:05:54;1.10;;;1.00;;
10094;SDS011;5086;50.830;7.102;2023-07-29T04:08:21;1.35;;;1.00;;
10094;SDS011;5086;50.830;7.102;2023-07-29T04:10:48;1.30;;;1.00;;
10094;SDS011;5086;50.830;7.102;2023-07-29T04:13:16;1.40;;;1.10;;
10094;SDS011;5086;50.830;7.102;2023-07-29T04:15:44;1.55;;;1.10;;
10094;SDS011;5086;50.830;7.102;2023-07-29T04:18:11;1.30;;;1.20;;
10094;SDS011;5086;50.830;7.102;2023-07-29T04:20:38;1.30;;;1.20;;
10094;SDS011;5086;50.830;7.102;2023-07-29T04:23:05;1.27;;;1.10;;
10094;SDS011;5086;50.830;7.102;2023-07-29T04:25:32;1.10;;;1.00;;
10094;SDS011;5086;50.830;7.102;2023-07-29T04:27:59;1.95;;;1.20;;
10094;SDS011;5086;50.830;7.102;2023-07-29T04:30:29;1.90;;;1.55;;
10094;SDS011;5086;50.830;7.102;2023-07-29T04:32:56;1.55;;;1.13;;
10094;SDS011;5086;50.830;7.102;2023-07-29T04:35:23;1.05;;;0.98;;
10094;SDS011;5086;50.830;7.102;2023-07-29T04:37:50;3.63;;;1.08;;
10094;SDS011;5086;50.830;7.102;2023-07-29T04:40:17;1.33;;;1.00;;
10094;SDS011;5086;50.830;7.102;2023-07-29T04:42:44;1.42;;;1.20;;
10094;SDS011;5086;50.830;7.102;2023-07-29T04:45:11;2.80;;;1.27;;
10094;SDS011;5086;50.830;7.102;2023-07-29T04:47:39;4.03;;;1.50;;
10094;SDS011;5086;50.830;7.102;2023-07-29T04:50:07;1.65;;;1.00;;
10094;SDS011;5086;50.830;7.102;2023-07-29T04:52:34;3.10;;;1.30;;
10094;SDS011;5086;50.830;7.102;2023-07-29T04:55:01;1.33;;;1.10;;
10094;SDS011;5086;50.830;7.102;2023-07-29T04:57:28;1.20;;;1.10;;
10094;SDS011;5086;50.830;7.102;2023-07-29T04:59:55;1.25;;;1.15;;
10094;SDS011;5086;50.830;7.102;2023-07-29T05:02:22;1.20;;;1.08;;
10094;SDS011;5086;50.830;7.102;2023-07-29T05:04:50;1.10;;;1.00;;
10094;SDS011;5086;50.830;7.102;2023-07-29T05:07:17;1.50;;;1.20;;
10094;SDS011;5086;50.830;7.102;2023-07-29T05:09:44;2.33;;;1.30;;
10094;SDS011;5086;50.830;7.102;2023-07-29T05:12:11;1.90;;;1.05;;
10094;SDS011;5086;50.830;7.102;2023-07-29T05:14:38;1.73;;;1.40;;
10094;SDS011;5086;50.830;7.102;2023-07-29T05:17:05;2.47;;;1.20;;
10094;SDS011;5086;50.830;7.102;2023-07-29T05:19:31;1.60;;;1.15;;
10094;SDS011;5086;50.830;7.102;2023-07-29T05:22:00;2.13;;;1.20;;
10094;SDS011;5086;50.830;7.102;2023-07-29T05:24:27;1.55;;;1.23;;
10094;SDS011;5086;50.830;7.102;2023-07-29T05:26:54;1.40;;;1.30;;
10094;SDS011;5086;50.830;7.102;2023-07-29T05:29:21;2.45;;;1.65;;
10094;SDS011;5086;50.830;7.102;2023-07-29T05:31:47;1.67;;;1.10;;
10094;SDS011;5086;50.830;7.102;2023-07-29T05:34:14;1.87;;;1.30;;
10094;SDS011;5086;50.830;7.102;2023-07-29T05:36:41;4.15;;;1.30;;
10094;SDS011;5086;50.830;7.102;2023-07-29T05:39:09;1.60;;;1.30;;
10094;SDS011;5086;50.830;7.102;2023-07-29T05:41:37;1.88;;;1.10;;
10094;SDS011;5086;50.830;7.102;2023-07-29T05:44:03;1.40;;;1.30;;
10094;SDS011;5086;50.830;7.102;2023-07-29T05:46:31;1.98;;;1.30;;
10094;SDS011;5086;50.830;7.102;2023-07-29T05:48:58;1.23;;;1.13;;
10094;SDS011;5086;50.830;7.102;2023-07-29T05:51:24;1.50;;;1.40;;
10094;SDS011;5086;50.830;7.102;2023-07-29T05:53:51;1.67;;;1.35;;
10094;SDS011;5086;50.830;7.102;2023-07-29T05:56:20;2.65;;;1.33;;
10094;SDS011;5086;50.830;7.102;2023-07-29T05:58:47;1.10;;;1.00;;
10094;SDS011;5086;50.830;7.102;2023-07-29T06:01:14;2.50;;;1.25;;
10094;SDS011;5086;50.830;7.102;2023-07-29T06:03:41;1.27;;;1.17;;
10094;SDS011;5086;50.830;7.102;2023-07-29T06:06:08;1.02;;;0.93;;
10094;SDS011;5086;50.830;7.102;2023-07-29T06:08:35;1.48;;;1.38;;
10094;SDS011;5086;50.830;7.102;2023-07-29T06:11:02;1.85;;;1.52;;
10094;SDS011;5086;50.830;7.102;2023-07-29T06:13:32;2.72;;;1.52;;
10094;SDS011;5086;50.830;7.102;2023-07-29T06:15:59;1.75;;;1.45;;
10094;SDS011;5086;50.830;7.102;2023-07-29T06:18:26;1.60;;;1.20;;
10094;SDS011;5086;50.830;7.102;2023-07-29T06:20:53;2.42;;;1.50;;
10094;SDS011;5086;50.830;7.102;2023-07-29T06:23:20;2.38;;;1.30;;
10094;SDS011;5086;50.830;7.102;2023-07-29T06:25:47;2.97;;;1.60;;
10094;SDS011;5086;50.830;7.102;2023-07-29T06:28:13;1.38;;;1.27;;
10094;SDS011;5086;50.830;7.102;2023-07-29T06:30:42;1.48;;;1.38;;
10094;SDS011;5086;50.830;7.102;2023-07-29T06:33:09;3.67;;;1.85;;
10094;SDS011;5086;50.830;7.102;2023-07-29T06:35:36;5.35;;;1.70;;
10094;SDS011;5086;50.830;7.102;2023-07-29T06:38:03;2.92;;;1.90;;
10094;SDS011;5086;50.830;7.102;2023-07-29T06:40:29;1.73;;;1.58;;
10094;SDS011;5086;50.830;7.102;2023-07-29T06:42:56;2.45;;;1.90;;
10094;SDS011;5086;50.830;7.102;2023-07-29T06:45:23;2.03;;;1.60;;
10094;SDS011;5086;50.830;7.102;2023-07-29T06:47:51;2.78;;;1.65;;
10094;SDS011;5086;50.830;7.102;2023-07-29T06:50:18;2.10;;;1.73;;
10094;SDS011;5086;50.830;7.102;2023-07-29T06:52:45;2.17;;;1.95;;
10094;SDS011;5086;50.830;7.102;2023-07-29T06:55:12;6.10;;;2.15;;
10094;SDS011;5086;50.830;7.102;2023-07-29T06:57:39;2.70;;;1.80;;
10094;SDS011;5086;50.830;7.102;2023-07-29T07:00:06;2.50;;;2.30;;
10094;SDS011;5086;50.830;7.102;2023-07-29T07:02:34;14.57;;;2.40;;
10094;SDS011;5086;50.830;7.102;2023-07-29T07:05:02;4.47;;;2.55;;
10094;SDS011;5086;50.830;7.102;2023-07-29T07:07:30;4.25;;;2.42;;
10094;SDS011;5086;50.830;7.102;2023-07-29T07:09:57;3.00;;;2.35;;
10094;SDS011;5086;50.830;7.102;2023-07-29T07:12:23;4.80;;;2.95;;
10094;SDS011;5086;50.830;7.102;2023-07-29T07:14:50;2.63;;;2.43;;
10094;SDS011;5086;50.830;7.102;2023-07-29T07:17:17;3.97;;;2.40;;
10094;SDS011;5086;50.830;7.102;2023-07-29T07:19:44;4.30;;;2.22;;
10094;SDS011;5086;50.830;7.102;2023-07-29T07:22:14;3.20;;;2.50;;
10094;SDS011;5086;50.830;7.102;2023-07-29T07:24:41;3.38;;;2.40;;
10094;SDS011;5086;50.830;7.102;2023-07-29T07:27:08;3.63;;;2.45;;
10094;SDS011;5086;50.830;7.102;2023-07-29T07:29:34;3.15;;;2.75;;
10094;SDS011;5086;50.830;7.102;2023-07-29T07:32:01;3.58;;;2.40;;
10094;SDS011;5086;50.830;7.102;2023-07-29T07:34:29;2.47;;;2.10;;
10094;SDS011;5086;50.830;7.102;2023-07-29T07:36:58;3.88;;;2.22;;
10094;SDS011;5086;50.830;7.102;2023-07-29T07:39:27;2.45;;;2.10;;
10094;SDS011;5086;50.830;7.102;2023-07-29T07:41:54;3.20;;;2.40;;
10094;SDS011;5086;50.830;7.102;2023-07-29T07:44:20;12.38;;;2.22;;
10094;SDS011;5086;50.830;7.102;2023-07-29T07:46:47;2.30;;;2.10;;
10094;SDS011;5086;50.830;7.102;2023-07-29T07:49:14;3.42;;;2.42;;
10094;SDS011;5086;50.830;7.102;2023-07-29T07:51:41;5.05;;;2.72;;
10094;SDS011;5086;50.830;7.102;2023-07-29T07:54:09;2.53;;;2.05;;
10094;SDS011;5086;50.830;7.102;2023-07-29T07:56:38;2.92;;;2.30;;
10094;SDS011;5086;50.830;7.102;2023-07-29T07:59:05;2.80;;;2.50;;
10094;SDS011;5086;50.830;7.102;2023-07-29T08:01:33;3.75;;;2.67;;
10094;SDS011;5086;50.830;7.102;2023-07-29T08:04:01;2.53;;;2.33;;
10094;SDS011;5086;50.830;7.102;2023-07-29T08:06:28;2.70;;;2.30;;
10094;SDS011;5086;50.830;7.102;2023-07-29T08:08:55;2.72;;;2.20;;
10094;SDS011;5086;50.830;7.102;2023-07-29T08:11:22;3.83;;;2.40;;
10094;SDS011;5086;50.830;7.102;2023-07-29T08:13:50;2.20;;;2.00;;
10094;SDS011;5086;50.830;7.102;2023-07-29T08:16:17;2.70;;;2.17;;
10094;SDS011;5086;50.830;7.102;2023-07-29T08:18:43;3.20;;;1.80;;
10094;SDS011;5086;50.830;7.102;2023-07-29T08:21:10;1.70;;;1.60;;
10094;SDS011;5086;50.830;7.102;2023-07-29T08:23:37;1.70;;;1.60;;
10094;SDS011;5086;50.830;7.102;2023-07-29T08:26:05;1.70;;;1.40;;
10094;SDS011;5086;50.830;7.102;2023-07-29T08:28:32;1.57;;;1.40;;
10094;SDS011;5086;50.830;7.102;2023-07-29T08:31:02;2.40;;;1.60;;
10094;SDS011;5086;50.830;7.102;2023-07-29T08:33:29;1.83;;;1.70;;
10094;SDS011;5086;50.830;7.102;2023-07-29T08:35:57;3.23;;;1.90;;
10094;SDS011;5086;50.830;7.102;2023-07-29T08:38:24;2.00;;;1.63;;
10094;SDS011;5086;50.830;7.102;2023-07-29T08:40:52;1.67;;;1.50;;
10094;SDS011;5086;50.830;7.102;2023-07-29T08:43:24;2.77;;;1.97;;
10094;SDS011;5086;50.830;7.102;2023-07-29T08:45:57;1.60;;;1.50;;
10094;SDS011;5086;50.830;7.102;2023-07-29T08:48:28;2.40;;;1.20;;
10094;SDS011;5086;50.830;7.102;2023-07-29T08:50:59;1.60;;;1.50;;
10094;SDS011;5086;50.830;7.102;2023-07-29T08:53:27;1.43;;;1.33;;
10094;SDS011;5086;50.830;7.102;2023-07-29T08:55:54;1.90;;;1.80;;
10094;SDS011;5086;50.830;7.102;2023-07-29T08:58:22;1.67;;;1.57;;
10094;SDS011;5086;50.830;7.102;2023-07-29T09:00:50;1.83;;;1.67;;
10094;SDS011;5086;50.830;7.102;2023-07-29T09:03:17;1.80;;;1.70;;
10094;SDS011;5086;50.830;7.102;2023-07-29T09:05:45;2.10;;;1.40;;
10094;SDS011;5086;50.830;7.102;2023-07-29T09:08:13;1.58;;;1.48;;
10094;SDS011;5086;50.830;7.102;2023-07-29T09:10:40;1.57;;;1.47;;
10094;SDS011;5086;50.830;7.102;2023-07-29T09:13:07;1.75;;;1.58;;
10094;SDS011;5086;50.830;7.102;2023-07-29T09:15:34;2.20;;;1.50;;
10094;SDS011;5086;50.830;7.102;2023-07-29T09:18:08;1.50;;;1.33;;
10094;SDS011;5086;50.830;7.102;2023-07-29T09:20:36;1.25;;;1.15;;
10094;SDS011;5086;50.830;7.102;2023-07-29T09:23:07;1.57;;;1.27;;
10094;SDS011;5086;50.830;7.102;2023-07-29T09:25:35;1.40;;;1.30;;
10094;SDS011;5086;50.830;7.102;2023-07-29T09:28:07;1.60;;;1.40;;
10094;SDS011;5086;50.830;7.102;2023-07-29T09:30:34;1.80;;;1.50;;
10094;SDS011;5086;50.830;7.102;2023-07-29T09:33:01;2.10;;;1.30;;
10094;SDS011;5086;50.830;7.102;2023-07-29T09:35:30;2.97;;;1.65;;
10094;SDS011;5086;50.830;7.102;2023-07-29T09:37:59;2.00;;;1.50;;
10094;SDS011;5086;50.830;7.102;2023-07-29T09:40:28;1.33;;;1.20;;
10094;SDS011;5086;50.830;7.102;2023-07-29T09:43:01;1.30;;;1.00;;
10094;SDS011;5086;50.830;7.102;2023-07-29T09:45:29;1.50;;;1.40;;
10094;SDS011;5086;50.830;7.102;2023-07-29T09:47:57;2.07;;;1.40;;
10094;SDS011;5086;50.830;7.102;2023-07-29T09:50:24;1.10;;;1.00;;
10094;SDS011;5086;50.830;7.102;2023-07-29T09:52:52;1.70;;;1.60;;
10094;SDS011;5086;50.830;7.102;2023-07-29T09:55:21;2.20;;;1.40;;
10094;SDS011;5086;50.830;7.102;2023-07-29T09:57:55;1.60;;;1.17;;
10094;SDS011;5086;50.830;7.102;2023-07-29T10:00:25;2.50;;;1.40;;
10094;SDS011;5086;50.830;7.102;2023-07-29T10:02:53;1.73;;;1.40;;
10094;SDS011;5086;50.830;7.102;2023-07-29T10:05:21;1.73;;;1.30;;
10094;SDS011;5086;50.830;7.102;2023-07-29T10:07:48;2.17;;;1.23;;
10094;SDS011;5086;50.830;7.102;2023-07-29T10:10:16;1.73;;;1.60;;
10094;SDS011;5086;50.830;7.102;2023-07-29T10:12:43;1.43;;;1.30;;
10094;SDS011;5086;50.830;7.102;2023-07-29T10:15:12;2.70;;;1.43;;
10094;SDS011;5086;50.830;7.102;2023-07-29T10:17:39;1.33;;;1.10;;
10094;SDS011;5086;50.830;7.102;2023-07-29T10:20:07;2.37;;;2.03;;
10094;SDS011;5086;50.830;7.102;2023-07-29T10:22:38;1.93;;;1.07;;
10094;SDS011;5086;50.830;7.102;2023-07-29T10:25:08;1.10;;;1.00;;
10094;SDS011;5086;50.830;7.102;2023-07-29T10:27:43;1.27;;;1.17;;
10094;SDS011;5086;50.830;7.102;2023-07-29T10:30:17;1.13;;;1.03;;
10094;SDS011;5086;50.830;7.102;2023-07-29T10:32:44;1.63;;;1.20;;
10094;SDS011;5086;50.830;7.102;2023-07-29T10:35:11;2.80;;;1.37;;
10094;SDS011;5086;50.830;7.102;2023-07-29T10:37:39;1.70;;;1.50;;
10094;SDS011;5086;50.830;7.102;2023-07-29T10:40:07;1.30;;;1.20;;
10094;SDS011;5086;50.830;7.102;2023-07-29T10:42:36;4.00;;;1.93;;
10094;SDS011;5086;50.830;7.102;2023-07-29T10:45:20;2.10;;;1.53;;
10094;SDS011;5086;50.830;7.102;2023-07-29T10:47:48;1.10;;;1.00;;
10094;SDS011;5086;50.830;7.102;2023-07-29T10:50:18;2.07;;;1.40;;
10094;SDS011;5086;50.830;7.102;2023-07-29T10:52:50;1.10;;;1.00;;
10094;SDS011;5086;50.830;7.102;2023-07-29T10:55:25;1.27;;;1.13;;
10094;SDS011;5086;50.830;7.102;2023-07-29T10:58:04;1.47;;;1.23;;
10094;SDS011;5086;50.830;7.102;2023-07-29T11:00:37;2.40;;;1.23;;
10094;SDS011;5086;50.830;7.102;2023-07-29T11:03:05;1.20;;;1.10;;
10094;SDS011;5086;50.830;7.102;2023-07-29T11:05:43;1.40;;;1.30;;
10094;SDS011;5086;50.830;7.102;2023-07-29T11:08:18;1.30;;;1.20;;
10094;SDS011;5086;50.830;7.102;2023-07-29T11:10:57;2.40;;;1.50;;
10094;SDS011;5086;50.830;7.102;2023-07-29T11:13:28;3.20;;;1.20;;
10094;SDS011;5086;50.830;7.102;2023-07-29T11:15:58;1.73;;;1.50;;
10094;SDS011;5086;50.830;7.102;2023-07-29T11:18:26;1.30;;;1.10;;
10094;SDS011;5086;50.830;7.102;2023-07-29T11:20:54;1.43;;;1.30;;
10094;SDS011;5086;50.830;7.102;2023-07-29T11:23:27;2.70;;;1.50;;
10094;SDS011;5086;50.830;7.102;2023-07-29T11:25:58;1.80;;;1.37;;
10094;SDS011;5086;50.830;7.102;2023-07-29T11:28:26;2.10;;;1.50;;
10094;SDS011;5086;50.830;7.102;2023-07-29T11:30:54;1.83;;;1.57;;
10094;SDS011;5086;50.830;7.102;2023-07-29T11:33:23;1.97;;;1.40;;
10094;SDS011;5086;50.830;7.102;2023-07-29T11:35:53;1.80;;;1.30;;
10094;SDS011;5086;50.830;7.102;2023-07-29T11:38:20;1.50;;;1.40;;
10094;SDS011;5086;50.830;7.102;2023-07-29T11:40:55;1.33;;;1.20;;
10094;SDS011;5086;50.830;7.102;2023-07-29T11:43:22;1.83;;;1.37;;
10094;SDS011;5086;50.830;7.102;2023-07-29T11:45:50;2.10;;;1.60;;
10094;SDS011;5086;50.830;7.102;2023-07-29T11:48:18;2.13;;;1.40;;
10094;SDS011;5086;50.830;7.102;2023-07-29T11:50:53;1.50;;;1.40;;
10094;SDS011;5086;50.830;7.102;2023-07-29T11:53:21;3.67;;;1.50;;
10094;SDS011;5086;50.830;7.102;2023-07-29T11:55:49;1.50;;;1.40;;
10094;SDS011;5086;50.830;7.102;2023-07-29T11:58:17;1.40;;;1.30;;
10094;SDS011;5086;50.830;7.102;2023-07-29T12:00:44;1.57;;;1.30;;
10094;SDS011;5086;50.830;7.102;2023-07-29T12:03:11;1.50;;;1.40;;
10094;SDS011;5086;50.830;7.102;2023-07-29T12:05:38;1.50;;;1.40;;
10094;SDS011;5086;50.830;7.102;2023-07-29T12:08:06;1.80;;;1.20;;
10094;SDS011;5086;50.830;7.102;2023-07-29T12:10:34;2.07;;;1.40;;
10094;SDS011;5086;50.830;7.102;2023-07-29T12:13:02;2.37;;;1.50;;
10094;SDS011;5086;50.830;7.102;2023-07-29T12:15:29;2.73;;;1.37;;
10094;SDS011;5086;50.830;7.102;2023-07-29T12:17:56;2.10;;;1.40;;
10094;SDS011;5086;50.830;7.102;2023-07-29T12:20:24;1.43;;;1.33;;
10094;SDS011;5086;50.830;7.102;2023-07-29T12:22:51;2.70;;;1.43;;
10094;SDS011;5086;50.830;7.102;2023-07-29T12:25:21;1.50;;;1.40;;
10094;SDS011;5086;50.830;7.102;2023-07-29T12:27:48;2.17;;;1.40;;
10094;SDS011;5086;50.830;7.102;2023-07-29T12:30:15;1.53;;;1.10;;
10094;SDS011;5086;50.830;7.102;2023-07-29T12:32:43;1.60;;;1.50;;
10094;SDS011;5086;50.830;7.102;2023-07-29T12:35:11;2.00;;;1.70;;
10094;SDS011;5086;50.830;7.102;2023-07-29T12:37:38;2.60;;;1.40;;
10094;SDS011;5086;50.830;7.102;2023-07-29T12:40:08;1.67;;;1.57;;
10094;SDS011;5086;50.830;7.102;2023-07-29T12:42:47;1.60;;;1.40;;
10094;SDS011;5086;50.830;7.102;2023-07-29T12:45:15;1.37;;;1.27;;
10094;SDS011;5086;50.830;7.102;2023-07-29T12:47:42;1.53;;;1.43;;
10094;SDS011;5086;50.830;7.102;2023-07-29T12:50:09;1.37;;;1.23;;
10094;SDS011;5086;50.830;7.102;2023-07-29T12:52:36;2.10;;;1.40;;
10094;SDS011;5086;50.830;7.102;2023-07-29T12:55:04;1.40;;;1.30;;
10094;SDS011;5086;50.830;7.102;2023-07-29T12:57:33;1.80;;;1.37;;
10094;SDS011;5086;50.830;7.102;2023-07-29T13:00:02;1.33;;;1.20;;
10094;SDS011;5086;50.830;7.102;2023-07-29T13:02:29;1.20;;;1.10;;
10094;SDS011;5086;50.830;7.102;2023-07-29T13:04:56;1.30;;;1.20;;
10094;SDS011;5086;50.830;7.102;2023-07-29T13:07:23;1.60;;;1.50;;
10094;SDS011;5086;50.830;7.102;2023-07-29T13:09:50;1.60;;;1.40;;
10094;SDS011;5086;50.830;7.102;2023-07-29T13:12:17;1.40;;;1.20;;
10094;SDS011;5086;50.830;7.102;2023-07-29T13:14:44;1.30;;;1.20;;
10094;SDS011;5086;50.830;7.102;2023-07-29T13:17:12;1.30;;;1.20;;
10094;SDS011;5086;50.830;7.102;2023-07-29T13:19:39;1.40;;;1.20;;
10094;SDS011;5086;50.830;7.102;2023-07-29T13:22:06;1.43;;;1.10;;
10094;SDS011;5086;50.830;7.102;2023-07-29T13:24:32;1.93;;;1.37;;
10094;SDS011;5086;50.830;7.102;2023-07-29T13:26:59;2.13;;;1.40;;
10094;SDS011;5086;50.830;7.102;2023-07-29T13:29:26;2.13;;;1.83;;
10094;SDS011;5086;50.830;7.102;2023-07-29T13:31:53;2.60;;;1.70;;
10094;SDS011;5086;50.830;7.102;2023-07-29T13:34:21;1.57;;;1.47;;
10094;SDS011;5086;50.830;7.102;2023-07-29T13:36:48;1.90;;;1.40;;
10094;SDS011;5086;50.830;7.102;2023-07-29T13:39:15;1.50;;;1.40;;
10094;SDS011;5086;50.830;7.102;2023-07-29T13:41:42;2.20;;;1.37;;
10094;SDS011;5086;50.830;7.102;2023-07-29T13:44:09;1.63;;;1.53;;
10094;SDS011;5086;50.830;7.102;2023-07-29T13:46:36;2.00;;;1.43;;
10094;SDS011;5086;50.830;7.102;2023-07-29T13:49:03;1.57;;;1.40;;
10094;SDS011;5086;50.830;7.102;2023-07-29T13:51:31;1.77;;;1.53;;
10094;SDS011;5086;50.830;7.102;2023-07-29T13:53:58;2.47;;;1.40;;
10094;SDS011;5086;50.830;7.102;2023-07-29T13:56:24;1.37;;;1.27;;
10094;SDS011;5086;50.830;7.102;2023-07-29T13:58:51;2.30;;;1.50;;
10094;SDS011;5086;50.830;7.102;2023-07-29T14:01:18;2.63;;;1.50;;
10094;SDS011;5086;50.830;7.102;2023-07-29T14:03:45;1.55;;;1.30;;
10094;SDS011;5086;50.830;7.102;2023-07-29T14:06:12;3.10;;;1.47;;
10094;SDS011;5086;50.830;7.102;2023-07-29T14:08:40;1.87;;;1.60;;
10094;SDS011;5086;50.830;7.102;2023-07-29T14:11:07;9.30;;;1.53;;
10094;SDS011;5086;50.830;7.102;2023-07-29T14:13:34;2.67;;;2.00;;
10094;SDS011;5086;50.830;7.102;2023-07-29T14:16:01;2.00;;;1.67;;
10094;SDS011;5086;50.830;7.102;2023-07-29T14:18:28;2.90;;;1.50;;
10094;SDS011;5086;50.830;7.102;2023-07-29T14:20:55;2.10;;;1.70;;
10094;SDS011;5086;50.830;7.102;2023-07-29T14:23:22;2.10;;;1.70;;
10094;SDS011;5086;50.830;7.102;2023-07-29T14:25:51;1.93;;;1.50;;
10094;SDS011;5086;50.830;7.102;2023-07-29T14:28:17;1.67;;;1.30;;
10094;SDS011;5086;50.830;7.102;2023-07-29T14:30:44;1.50;;;1.40;;
10094;SDS011;5086;50.830;7.102;2023-07-29T14:33:11;1.60;;;1.30;;
10094;SDS011;5086;50.830;7.102;2023-07-29T14:35:39;1.87;;;1.30;;
10094;SDS011;5086;50.830;7.102;2023-07-29T14:38:07;1.92;;;1.40;;
10094;SDS011;5086;50.830;7.102;2023-07-29T14:40:33;1.85;;;1.45;;
10094;SDS011;5086;50.830;7.102;2023-07-29T14:43:02;2.63;;;1.60;;
10094;SDS011;5086;50.830;7.102;2023-07-29T14:45:29;1.40;;;1.30;;
10094;SDS011;5086;50.830;7.102;2023-07-29T14:47:56;2.20;;;1.40;;
10094;SDS011;5086;50.830;7.102;2023-07-29T14:50:22;1.77;;;1.40;;
10094;SDS011;5086;50.830;7.102;2023-07-29T14:52:49;2.07;;;1.50;;
10094;SDS011;5086;50.830;7.102;2023-07-29T14:55:16;1.67;;;1.30;;
10094;SDS011;5086;50.830;7.102;2023-07-29T14:57:43;2.10;;;1.90;;
10094;SDS011;5086;50.830;7.102;2023-07-29T15:00:13;2.03;;;1.30;;
10094;SDS011;5086;50.830;7.102;2023-07-29T15:02:40;1.90;;;1.70;;
10094;SDS011;5086;50.830;7.102;2023-07-29T15:05:07;1.90;;;1.50;;